createdAt,value
2023-04-04T00:00:27.555Z,2.97
2023-04-04T00:02:54.658Z,2.50
2023-04-04T00:05:21.498Z,2.40
2023-04-04T00:07:48.737Z,2.47
2023-04-04T00:10:16.075Z,2.53
2023-04-04T00:12:44.110Z,2.20
2023-04-04T00:15:11.721Z,2.70
2023-04-04T00:17:38.906Z,4.27
2023-04-04T00:20:06.512Z,3.27
2023-04-04T00:22:33.254Z,2.43
2023-04-04T00:25:00.122Z,2.53
2023-04-04T00:27:26.955Z,4.60
2023-04-04T00:29:53.717Z,5.60
2023-04-04T00:32:20.729Z,4.33
2023-04-04T00:34:53.204Z,3.97
2023-04-04T00:37:20.128Z,3.10
2023-04-04T00:39:47.762Z,3.40
2023-04-04T00:42:14.515Z,2.60
2023-04-04T00:44:41.506Z,2.97
2023-04-04T00:47:08.289Z,1.93
2023-04-04T00:49:34.992Z,4.00
2023-04-04T00:52:01.703Z,4.20
2023-04-04T00:54:29.835Z,2.90
2023-04-04T00:56:56.784Z,2.40
2023-04-04T00:59:26.469Z,1.77
2023-04-04T01:01:53.669Z,4.63
2023-04-04T01:04:20.547Z,4.40
2023-04-04T01:06:47.397Z,2.60
2023-04-04T01:09:14.083Z,2.53
2023-04-04T01:11:40.813Z,2.33
2023-04-04T01:14:07.721Z,2.50
2023-04-04T01:16:36.342Z,2.20
2023-04-04T01:19:06.627Z,3.33
2023-04-04T01:21:33.980Z,2.87
2023-04-04T01:24:03.094Z,2.00
2023-04-04T01:26:30.871Z,2.30
2023-04-04T01:28:58.981Z,4.37
2023-04-04T01:31:42.952Z,2.90
2023-04-04T01:34:42.657Z,2.23
2023-04-04T01:37:21.680Z,4.20
2023-04-04T01:40:02.572Z,2.03
2023-04-04T01:42:29.539Z,3.00
2023-04-04T01:44:57.621Z,2.33
2023-04-04T01:47:24.869Z,2.77
2023-04-04T01:49:53.983Z,4.97
2023-04-04T01:52:20.753Z,3.00
2023-04-04T01:54:47.499Z,3.60
2023-04-04T01:57:14.281Z,2.00
2023-04-04T01:59:41.074Z,3.60
2023-04-04T02:02:07.861Z,2.93
2023-04-04T02:04:34.903Z,3.20
2023-04-04T02:07:01.592Z,2.50
2023-04-04T02:09:28.436Z,1.63
2023-04-04T02:11:56.121Z,2.30
2023-04-04T02:14:22.868Z,2.30
2023-04-04T02:16:50.042Z,1.53
2023-04-04T02:19:16.796Z,2.13
2023-04-04T02:21:43.486Z,4.50
2023-04-04T02:24:10.505Z,1.73
2023-04-04T02:26:37.534Z,3.70
2023-04-04T02:29:04.483Z,2.73
2023-04-04T02:31:31.287Z,3.10
2023-04-04T02:33:58.061Z,5.87
2023-04-04T02:36:24.739Z,2.83
2023-04-04T02:38:51.851Z,4.07
2023-04-04T02:41:18.624Z,4.13
2023-04-04T02:43:45.404Z,2.00
2023-04-04T02:46:21.286Z,4.13
2023-04-04T02:48:50.605Z,3.77
2023-04-04T02:51:17.565Z,3.60
2023-04-04T02:53:44.257Z,2.93
2023-04-04T02:56:10.949Z,3.77
2023-04-04T02:58:37.637Z,5.50
2023-04-04T03:01:04.344Z,3.77
2023-04-04T03:03:31.588Z,2.20
2023-04-04T03:05:59.890Z,3.60
2023-04-04T03:08:28.126Z,4.43
2023-04-04T03:10:54.819Z,3.07
2023-04-04T03:13:21.555Z,4.77
2023-04-04T03:15:49.643Z,2.40
2023-04-04T03:18:16.533Z,2.33
2023-04-04T03:20:43.256Z,3.23
2023-04-04T03:23:09.945Z,4.43
2023-04-04T03:25:37.028Z,3.67
2023-04-04T03:28:10.691Z,5.40
2023-04-04T03:30:40.515Z,2.10
2023-04-04T03:33:08.443Z,5.70
2023-04-04T03:35:41.872Z,2.20
2023-04-04T03:38:09.977Z,2.47
2023-04-04T03:40:36.958Z,2.80
2023-04-04T03:43:03.802Z,3.57
2023-04-04T03:45:35.827Z,2.93
2023-04-04T03:48:02.763Z,4.77
2023-04-04T03:50:30.030Z,3.43
2023-04-04T03:52:58.363Z,3.60
2023-04-04T03:55:26.436Z,3.60
2023-04-04T03:57:53.396Z,3.33
2023-04-04T04:00:20.663Z,2.60
2023-04-04T04:02:47.461Z,3.10
2023-04-04T04:05:14.377Z,2.63
2023-04-04T04:07:44.455Z,2.40
2023-04-04T04:10:14.027Z,4.27
2023-04-04T04:12:40.884Z,4.23
2023-04-04T04:15:08.255Z,3.40
2023-04-04T04:17:34.996Z,5.20
2023-04-04T04:20:01.703Z,4.47
2023-04-04T04:22:28.448Z,2.67
2023-04-04T04:24:55.370Z,3.97
2023-04-04T04:27:22.150Z,4.27
2023-04-04T04:29:49.222Z,3.10
2023-04-04T04:32:17.718Z,3.37
2023-04-04T04:34:44.736Z,4.93
2023-04-04T04:37:11.645Z,3.97
2023-04-04T04:39:38.321Z,3.67
2023-04-04T04:42:05.254Z,3.60
2023-04-04T04:44:32.506Z,4.27
2023-04-04T04:46:59.239Z,5.03
2023-04-04T04:49:26.443Z,5.13
2023-04-04T04:51:53.910Z,3.63
2023-04-04T04:54:23.857Z,4.05
2023-04-04T04:56:50.623Z,4.10
2023-04-04T04:59:17.338Z,2.93
2023-04-04T05:01:44.027Z,3.03
2023-04-04T05:04:10.799Z,5.17
2023-04-04T05:06:38.236Z,3.53
2023-04-04T05:09:06.111Z,2.30
2023-04-04T05:11:32.814Z,2.97
2023-04-04T05:13:59.587Z,4.30
2023-04-04T05:16:26.283Z,4.03
2023-04-04T05:18:52.976Z,3.37
2023-04-04T05:21:19.769Z,6.13
2023-04-04T05:23:48.302Z,3.90
2023-04-04T05:26:15.391Z,4.13
2023-04-04T05:28:42.322Z,19.50
2023-04-04T05:31:09.220Z,43.33
2023-04-04T05:33:35.937Z,17.43
2023-04-04T05:36:03.099Z,23.23
2023-04-04T05:38:31.045Z,24.67
2023-04-04T05:40:57.820Z,14.43
2023-04-04T05:43:24.494Z,5.53
2023-04-04T05:45:51.381Z,2.90
2023-04-04T05:48:18.059Z,5.57
2023-04-04T05:50:47.499Z,5.03
2023-04-04T05:53:14.343Z,6.00
2023-04-04T05:55:41.082Z,8.30
2023-04-04T05:58:07.762Z,11.33
2023-04-04T06:00:34.497Z,6.23
2023-04-04T06:03:01.597Z,7.43
2023-04-04T06:05:28.444Z,5.20
2023-04-04T06:07:55.536Z,4.80
2023-04-04T06:10:22.394Z,6.20
2023-04-04T06:12:49.090Z,5.03
2023-04-04T06:15:16.053Z,5.50
2023-04-04T06:17:42.998Z,4.33
2023-04-04T06:20:10.483Z,2.80
2023-04-04T06:22:37.298Z,6.17
2023-04-04T06:25:04.404Z,2.70
2023-04-04T06:27:31.101Z,2.63
2023-04-04T06:29:57.799Z,5.13
2023-04-04T06:32:24.615Z,3.83
2023-04-04T06:34:51.368Z,8.93
2023-04-04T06:37:18.110Z,4.30
2023-04-04T06:39:44.788Z,4.83
2023-04-04T06:42:12.513Z,4.23
2023-04-04T06:44:39.211Z,4.07
2023-04-04T06:47:06.417Z,5.07
2023-04-04T06:49:33.491Z,4.67
2023-04-04T06:52:00.692Z,6.00
2023-04-04T06:54:27.503Z,5.00
2023-04-04T06:56:54.562Z,5.73
2023-04-04T06:59:21.636Z,8.13
2023-04-04T07:01:48.441Z,7.23
2023-04-04T07:04:15.172Z,6.97
2023-04-04T07:06:42.376Z,6.63
2023-04-04T07:09:15.454Z,6.63
2023-04-04T07:11:51.638Z,5.53
2023-04-04T07:14:18.325Z,6.20
2023-04-04T07:16:45.051Z,3.77
2023-04-04T07:19:14.582Z,4.93
2023-04-04T07:21:41.267Z,5.40
2023-04-04T07:24:08.120Z,5.10
2023-04-04T07:26:35.103Z,4.60
2023-04-04T07:29:02.022Z,5.53
2023-04-04T07:31:28.765Z,4.77
2023-04-04T07:33:55.585Z,3.20
2023-04-04T07:36:22.258Z,4.50
2023-04-04T07:38:48.968Z,5.00
2023-04-04T07:41:15.902Z,6.13
2023-04-04T07:43:42.724Z,4.43
2023-04-04T07:46:09.420Z,4.05
2023-04-04T07:48:36.455Z,7.28
2023-04-04T07:51:04.760Z,3.25
2023-04-04T07:53:31.681Z,4.18
2023-04-04T07:55:58.552Z,3.50
2023-04-04T07:58:25.236Z,3.58
2023-04-04T08:00:51.926Z,3.40
2023-04-04T08:03:24.118Z,3.60
2023-04-04T08:05:51.723Z,5.85
2023-04-04T08:08:18.768Z,5.07
2023-04-04T08:10:45.948Z,4.10
2023-04-04T08:13:13.400Z,5.25
2023-04-04T08:15:40.159Z,5.03
2023-04-04T08:18:07.429Z,4.75
2023-04-04T08:20:35.106Z,6.82
2023-04-04T08:23:02.464Z,9.88
2023-04-04T08:25:29.438Z,4.28
2023-04-04T08:27:56.458Z,2.45
2023-04-04T08:30:23.284Z,5.55
2023-04-04T08:32:50.192Z,3.00
2023-04-04T08:35:17.132Z,5.30
2023-04-04T08:37:45.318Z,4.33
2023-04-04T08:40:13.005Z,3.40
2023-04-04T08:42:41.518Z,5.80
2023-04-04T08:45:12.084Z,2.20
2023-04-04T08:47:39.815Z,3.37
2023-04-04T08:50:07.895Z,5.00
2023-04-04T08:52:37.959Z,2.77
2023-04-04T08:55:05.887Z,5.73
2023-04-04T08:57:33.432Z,3.77
2023-04-04T09:00:00.832Z,4.67
2023-04-04T09:02:36.493Z,7.70
2023-04-04T09:05:06.941Z,7.07
2023-04-04T09:07:36.481Z,7.47
2023-04-04T09:10:05.223Z,3.83
2023-04-04T09:12:35.354Z,5.80
2023-04-04T09:15:03.614Z,5.13
2023-04-04T09:17:30.303Z,4.47
2023-04-04T09:20:00.304Z,3.53
2023-04-04T09:22:27.511Z,6.13
2023-04-04T09:24:54.198Z,4.97
2023-04-04T09:27:21.446Z,2.73
2023-04-04T09:29:48.224Z,9.93
2023-04-04T09:32:16.312Z,7.47
2023-04-04T09:34:45.029Z,5.88
2023-04-04T09:37:15.431Z,6.97
2023-04-04T09:39:43.599Z,5.10
2023-04-04T09:42:11.284Z,4.50
2023-04-04T09:44:38.298Z,3.57
2023-04-04T09:50:01.423Z,15.63
2023-04-04T09:52:33.924Z,5.37
2023-04-04T09:55:02.907Z,8.67
2023-04-04T09:57:35.212Z,12.97
2023-04-04T10:00:04.276Z,7.97
2023-04-04T10:02:31.513Z,4.73
2023-04-04T10:05:06.002Z,6.80
2023-04-04T10:07:33.830Z,7.53
2023-04-04T10:10:09.083Z,7.27
2023-04-04T10:12:37.383Z,3.92
2023-04-04T10:15:04.569Z,2.42
2023-04-04T10:17:41.916Z,4.78
2023-04-04T10:20:10.087Z,3.75
2023-04-04T10:22:38.722Z,3.17
2023-04-04T10:25:06.324Z,4.00
2023-04-04T10:27:34.238Z,4.47
2023-04-04T10:30:01.136Z,2.97
2023-04-04T10:32:56.677Z,3.10
2023-04-04T10:35:25.120Z,4.32
2023-04-04T10:37:59.057Z,4.40
2023-04-04T10:40:34.676Z,4.45
2023-04-04T10:43:04.486Z,2.95
2023-04-04T10:45:32.514Z,3.88
2023-04-04T10:48:00.803Z,3.55
2023-04-04T10:50:28.412Z,4.10
2023-04-04T10:52:57.756Z,5.70
2023-04-04T10:55:24.733Z,4.30
2023-04-04T10:57:55.216Z,4.07
2023-04-04T11:00:24.268Z,4.07
2023-04-04T11:03:02.195Z,4.30
2023-04-04T11:05:40.908Z,4.70
2023-04-04T11:08:10.801Z,3.70
2023-04-04T11:10:46.021Z,4.07
2023-04-04T11:13:23.369Z,3.83
2023-04-04T11:15:57.957Z,4.22
2023-04-04T11:18:42.574Z,4.78
2023-04-04T11:21:13.816Z,3.97
2023-04-04T11:23:49.604Z,4.65
2023-04-04T11:26:37.612Z,4.10
2023-04-04T11:29:08.018Z,3.30
2023-04-04T11:31:45.473Z,4.83
2023-04-04T11:34:13.678Z,4.10
2023-04-04T11:36:41.535Z,4.67
2023-04-04T11:39:33.652Z,3.30
2023-04-04T11:42:10.990Z,4.00
2023-04-04T11:44:55.565Z,4.47
2023-04-04T11:47:25.786Z,3.73
2023-04-04T11:49:54.759Z,3.57
2023-04-04T11:52:21.536Z,4.30
2023-04-04T11:54:49.119Z,5.20
2023-04-04T11:57:18.007Z,3.97
2023-04-04T11:59:47.088Z,3.80
2023-04-04T12:02:19.328Z,4.77
2023-04-04T12:04:47.298Z,4.53
2023-04-04T12:07:17.303Z,3.60
2023-04-04T12:09:44.448Z,4.87
2023-04-04T12:12:16.465Z,4.83
2023-04-04T12:14:44.210Z,3.70
2023-04-04T12:17:11.666Z,4.37
2023-04-04T12:19:40.202Z,4.07
2023-04-04T12:22:10.868Z,5.67
2023-04-04T12:24:37.894Z,4.13
2023-04-04T12:27:06.344Z,4.47
2023-04-04T12:29:36.474Z,3.83
2023-04-04T12:32:04.550Z,4.82
2023-04-04T12:34:33.386Z,3.38
2023-04-04T12:37:02.012Z,4.57
2023-04-04T12:39:29.997Z,3.73
2023-04-04T12:42:03.852Z,4.03
2023-04-04T12:44:36.067Z,5.07
2023-04-04T12:47:05.990Z,5.30
2023-04-04T12:49:39.201Z,5.60
2023-04-04T12:52:08.883Z,4.63
2023-04-04T12:54:38.757Z,3.37
2023-04-04T12:57:07.372Z,3.80
2023-04-04T12:59:35.933Z,4.07
2023-04-04T13:02:07.397Z,3.53
2023-04-04T13:04:34.543Z,4.23
2023-04-04T13:07:05.891Z,4.73
2023-04-04T13:09:32.934Z,3.33
2023-04-04T13:12:03.301Z,5.80
2023-04-04T13:14:59.920Z,4.37
2023-04-04T13:17:38.672Z,4.63
2023-04-04T13:20:05.755Z,4.77
2023-04-04T13:22:39.328Z,3.47
2023-04-04T13:25:06.965Z,3.17
2023-04-04T13:27:34.125Z,4.13
2023-04-04T13:30:00.809Z,3.43
2023-04-04T13:32:31.113Z,3.20
2023-04-04T13:34:57.916Z,3.10
2023-04-04T13:37:25.323Z,4.30
2023-04-04T13:39:52.023Z,3.97
2023-04-04T13:42:18.971Z,3.13
2023-04-04T13:44:45.666Z,4.37
2023-04-04T13:47:12.351Z,5.77
2023-04-04T13:49:39.059Z,3.17
2023-04-04T13:52:05.782Z,4.80
2023-04-04T13:54:32.458Z,5.33
2023-04-04T13:56:59.204Z,4.57
2023-04-04T13:59:25.954Z,2.90
2023-04-04T14:01:52.723Z,4.33
2023-04-04T14:04:23.825Z,3.70
2023-04-04T14:06:51.201Z,4.70
2023-04-04T14:09:18.629Z,3.47
2023-04-04T14:11:46.452Z,4.47
2023-04-04T14:14:13.200Z,4.00
2023-04-04T14:16:40.109Z,4.03
2023-04-04T14:19:07.139Z,5.27
2023-04-04T14:21:33.946Z,4.23
2023-04-04T14:24:00.805Z,4.57
2023-04-04T14:26:27.475Z,2.93
2023-04-04T14:28:54.564Z,3.70
2023-04-04T14:31:21.664Z,2.87
2023-04-04T14:33:48.398Z,2.93
2023-04-04T14:36:15.534Z,3.17
2023-04-04T14:38:42.216Z,4.30
2023-04-04T14:41:09.493Z,3.80
2023-04-04T14:43:36.193Z,4.63
2023-04-04T14:46:02.998Z,3.30
2023-04-04T14:48:29.832Z,3.90
2023-04-04T14:50:57.033Z,4.43
2023-04-04T14:53:23.817Z,4.43
2023-04-04T14:55:51.164Z,3.97
2023-04-04T14:58:18.104Z,4.40
2023-04-04T15:00:46.088Z,5.43
2023-04-04T15:03:12.877Z,4.60
2023-04-04T15:05:39.853Z,5.07
2023-04-04T15:08:06.801Z,3.63
2023-04-04T15:10:33.622Z,4.27
2023-04-04T15:13:00.529Z,3.40
2023-04-04T15:15:29.015Z,6.07
2023-04-04T15:17:55.844Z,5.03
2023-04-04T15:20:22.622Z,6.43
2023-04-04T15:22:49.357Z,2.90
2023-04-04T15:25:16.584Z,16.43
2023-04-04T15:27:43.268Z,7.27
2023-04-04T15:30:10.329Z,6.97
2023-04-04T15:32:37.008Z,6.13
2023-04-04T15:35:04.516Z,4.90
2023-04-04T15:37:31.227Z,4.63
2023-04-04T15:39:58.099Z,4.00
2023-04-04T15:42:26.080Z,2.93
2023-04-04T15:44:52.805Z,5.43
2023-04-04T15:47:19.542Z,4.57
2023-04-04T15:49:46.315Z,3.10
2023-04-04T15:52:13.399Z,4.23
2023-04-04T15:54:40.409Z,4.30
2023-04-04T15:57:07.165Z,6.67
2023-04-04T15:59:33.997Z,6.30
2023-04-04T16:02:01.077Z,3.83
2023-04-04T16:04:27.752Z,3.83
2023-04-04T16:06:54.421Z,4.50
2023-04-04T16:09:21.390Z,4.27
2023-04-04T16:11:48.364Z,4.10
2023-04-04T16:14:15.105Z,3.50
2023-04-04T16:16:41.955Z,3.70
2023-04-04T16:19:08.730Z,4.77
2023-04-04T16:21:35.901Z,5.20
2023-04-04T16:24:05.137Z,3.57
2023-04-04T16:26:32.064Z,4.50
2023-04-04T16:28:58.881Z,3.17
2023-04-04T16:31:25.671Z,3.57
2023-04-04T16:33:52.395Z,3.37
2023-04-04T16:36:19.304Z,5.33
2023-04-04T16:38:46.120Z,5.40
2023-04-04T16:41:12.920Z,4.67
2023-04-04T16:43:39.650Z,3.97
2023-04-04T16:46:06.390Z,3.43
2023-04-04T16:48:33.070Z,4.00
2023-04-04T16:50:59.864Z,4.97
2023-04-04T16:53:26.576Z,4.90
2023-04-04T16:55:53.381Z,5.13
2023-04-04T16:58:20.298Z,3.97
2023-04-04T17:00:47.044Z,4.10
2023-04-04T17:03:13.787Z,6.57
2023-04-04T17:05:40.634Z,5.10
2023-04-04T17:08:07.490Z,5.47
2023-04-04T17:10:34.523Z,6.57
2023-04-04T17:13:02.031Z,5.03
2023-04-04T17:15:29.748Z,5.43
2023-04-04T17:17:56.656Z,5.20
2023-04-04T17:20:23.994Z,4.60
2023-04-04T17:22:53.152Z,4.53
2023-04-04T17:25:21.739Z,5.73
2023-04-04T17:27:48.473Z,5.63
2023-04-04T17:30:15.673Z,4.13
2023-04-04T17:32:43.104Z,3.30
2023-04-04T17:35:09.972Z,4.70
2023-04-04T17:37:36.680Z,3.97
2023-04-04T17:40:05.317Z,3.60
2023-04-04T17:42:32.040Z,4.80
2023-04-04T17:44:58.984Z,4.50
2023-04-04T17:47:26.119Z,3.93
2023-04-04T17:49:53.862Z,4.20
2023-04-04T17:52:20.622Z,5.60
2023-04-04T17:54:52.356Z,4.20
2023-04-04T17:57:19.869Z,4.53
2023-04-04T17:59:47.408Z,4.93
2023-04-04T18:02:14.651Z,4.93
2023-04-04T18:04:41.410Z,4.60
2023-04-04T18:07:08.984Z,10.23
2023-04-04T18:09:35.716Z,11.17
2023-04-04T18:12:02.613Z,22.83
2023-04-04T18:14:29.451Z,26.30
2023-04-04T18:16:56.525Z,23.53
2023-04-04T18:19:23.224Z,20.90
2023-04-04T18:21:51.430Z,31.60
2023-04-04T18:24:18.351Z,55.13
2023-04-04T18:26:45.119Z,48.70
2023-04-04T18:29:14.990Z,35.63
2023-04-04T18:31:41.765Z,32.53
2023-04-04T18:34:08.581Z,13.70
2023-04-04T18:36:36.398Z,11.57
2023-04-04T18:39:03.671Z,13.27
2023-04-04T18:41:30.629Z,12.17
2023-04-04T18:43:57.358Z,18.77
2023-04-04T18:46:25.770Z,15.73
2023-04-04T18:48:52.426Z,10.17
2023-04-04T18:51:22.178Z,11.80
2023-04-04T18:53:50.238Z,10.83
2023-04-04T18:56:16.963Z,17.67
2023-04-04T18:58:44.083Z,14.07
2023-04-04T19:01:11.903Z,12.53
2023-04-04T19:03:42.518Z,11.60
2023-04-04T19:06:12.580Z,8.20
2023-04-04T19:08:40.503Z,8.20
2023-04-04T19:11:07.535Z,8.60
2023-04-04T19:13:34.349Z,7.07
2023-04-04T19:16:01.633Z,7.20
2023-04-04T19:18:28.563Z,8.80
2023-04-04T19:20:55.478Z,9.07
2023-04-04T19:23:22.154Z,7.90
2023-04-04T19:25:48.857Z,9.00
2023-04-04T19:28:16.324Z,6.00
2023-04-04T19:30:44.082Z,6.53
2023-04-04T19:33:12.622Z,5.20
2023-04-04T19:35:55.872Z,10.43
2023-04-04T19:38:32.458Z,5.73
2023-04-04T19:41:02.078Z,6.87
2023-04-04T19:43:30.569Z,6.70
2023-04-04T19:45:59.306Z,5.37
2023-04-04T19:48:44.369Z,8.20
2023-04-04T19:51:32.833Z,5.27
2023-04-04T19:54:00.581Z,6.80
2023-04-04T19:56:28.499Z,7.10
2023-04-04T19:58:58.443Z,7.23
2023-04-04T20:01:30.036Z,7.47
2023-04-04T20:03:57.645Z,7.20
2023-04-04T20:06:29.351Z,7.30
2023-04-04T20:09:00.822Z,4.50
2023-04-04T20:11:31.349Z,8.83
2023-04-04T20:14:00.125Z,9.00
2023-04-04T20:16:28.020Z,16.87
2023-04-04T20:18:54.897Z,19.03
2023-04-04T20:21:23.530Z,38.20
2023-04-04T20:23:53.306Z,42.33
2023-04-04T20:26:39.841Z,39.23
2023-04-04T20:29:10.211Z,33.07
2023-04-04T20:31:49.979Z,29.20
2023-04-04T20:34:26.084Z,19.20
2023-04-04T20:36:52.893Z,14.63
2023-04-04T20:39:54.921Z,15.67
2023-04-04T20:42:30.790Z,12.00
2023-04-04T20:45:11.708Z,19.23
2023-04-04T20:47:52.802Z,12.27
2023-04-04T20:50:42.195Z,7.67
2023-04-04T20:53:17.014Z,7.43
2023-04-04T20:55:44.341Z,4.97
2023-04-04T20:58:29.887Z,7.30
2023-04-04T21:00:59.052Z,5.87
2023-04-04T21:03:26.077Z,7.60
2023-04-04T21:06:00.926Z,4.77
2023-04-04T21:08:38.085Z,7.07
2023-04-04T21:11:06.801Z,7.17
2023-04-04T21:13:40.255Z,7.73
2023-04-04T21:16:11.308Z,8.60
2023-04-04T21:18:39.688Z,6.53
2023-04-04T21:21:10.490Z,9.10
2023-04-04T21:23:47.680Z,6.10
2023-04-04T21:26:27.568Z,6.03
2023-04-04T21:28:55.426Z,7.23
2023-04-04T21:31:25.225Z,6.50
2023-04-04T21:33:54.387Z,7.93
2023-04-04T21:36:24.133Z,12.00
2023-04-04T21:38:52.486Z,7.47
2023-04-04T21:41:26.187Z,6.60
2023-04-04T21:43:54.554Z,10.53
2023-04-04T21:46:23.285Z,13.80
2023-04-04T21:48:50.211Z,11.10
2023-04-04T21:51:17.246Z,9.57
2023-04-04T21:53:44.062Z,10.57
2023-04-04T21:56:10.905Z,6.37
2023-04-04T21:58:37.654Z,7.10
2023-04-04T22:01:04.397Z,7.30
2023-04-04T22:03:31.069Z,6.87
2023-04-04T22:05:57.726Z,7.17
2023-04-04T22:08:24.647Z,8.67
2023-04-04T22:10:52.543Z,7.53
2023-04-04T22:13:22.522Z,7.87
2023-04-04T22:15:49.890Z,8.70
2023-04-04T22:18:17.330Z,9.40
2023-04-04T22:20:48.011Z,10.40
2023-04-04T22:23:17.645Z,9.30
2023-04-04T22:25:44.479Z,9.33
2023-04-04T22:28:11.164Z,7.80
2023-04-04T22:30:42.335Z,9.30
2023-04-04T22:33:09.480Z,6.70
2023-04-04T22:35:37.310Z,6.57
2023-04-04T22:38:04.549Z,8.00
2023-04-04T22:40:33.395Z,7.50
2023-04-04T22:43:01.475Z,7.70
2023-04-04T22:45:30.086Z,8.87
2023-04-04T22:47:57.969Z,5.23
2023-04-04T22:50:25.170Z,10.67
2023-04-04T22:52:54.690Z,8.30
2023-04-04T22:55:24.403Z,21.03
2023-04-04T22:57:51.216Z,14.07
2023-04-04T23:00:18.903Z,7.57
2023-04-04T23:02:47.494Z,7.07
2023-04-04T23:05:16.127Z,6.40
2023-04-04T23:07:43.713Z,5.50
2023-04-04T23:10:13.314Z,6.00
2023-04-04T23:12:40.480Z,6.57
2023-04-04T23:15:08.353Z,6.07
2023-04-04T23:17:36.250Z,7.63
2023-04-04T23:20:10.001Z,7.37
2023-04-04T23:22:37.924Z,6.77
2023-04-04T23:25:06.620Z,6.93
2023-04-04T23:27:34.370Z,6.87
2023-04-04T23:30:03.885Z,6.67
2023-04-04T23:32:31.636Z,7.53
2023-04-04T23:34:58.483Z,6.13
2023-04-04T23:37:25.229Z,7.57
2023-04-04T23:39:52.022Z,9.37
2023-04-04T23:42:18.709Z,7.00
2023-04-04T23:44:45.716Z,6.23
2023-04-04T23:47:12.686Z,5.93
2023-04-04T23:49:39.383Z,7.80
2023-04-04T23:52:06.924Z,5.17
2023-04-04T23:54:33.954Z,7.10
2023-04-04T23:57:00.739Z,5.60
2023-04-04T23:59:27.613Z,7.53
